Terminal Aerodrome Forecast
Issued by NWS Jackson, MS

Home | Current Version | Previous Version | Text Only | Print | Product List | Glossary On
Versions: 1 2 3 4 5 6 7 8 9 10 11 12 13 14 15 16 17
000
FTUS44 KMEG 202336
TAFTUP
TAF
KTUP 202336Z 2100/2124 16010KT P6SM BKN080 OVC250
     FM210600 20013G20KT P6SM SCT008 OVC015
     FM211200 20010G15KT P6SM VCSH OVC010
     FM211800 21013KT P6SM VCSH OVC010
      TEMPO 2118/2122 3SM -SHRA BR OVC005=

USA.gov is the U.S. government's official web portal to all federal, state and local government web resources and services.